Time;durP1;ratioP1;P1;durP2;ratioP2;P2;SDS_P1;SDS_P2;PMS_P1;PMS_P2;Temp;Humidity;BMP_temperature;BMP_pressure;BME280_temperature;BME280_humidity;BME280_pressure;Samples;Min_cycle;Max_cycle;Signal;HPM_P1;HPM_P2
2023/08/20 00:00:43;;;;;;;22.00;15.27;;;;;;;28.41;nan;97910.53;4913989;29;20154;-73
2023/08/20 00:03:14;;;;;;;18.40;13.80;;;;;;;28.38;nan;97909.22;4912454;29;20383;-72
2023/08/20 00:05:43;;;;;;;18.85;13.77;;;;;;;28.37;nan;97913.06;4930313;29;20048;-73
2023/08/20 00:08:12;;;;;;;21.95;14.90;;;;;;;28.35;nan;97912.63;4928812;29;20111;-73
2023/08/20 00:10:42;;;;;;;17.45;14.80;;;;;;;28.40;nan;97926.06;4929461;28;20055;-72
2023/08/20 00:13:11;;;;;;;18.80;14.93;;;;;;;28.38;nan;97919.31;4920748;28;20056;-73
2023/08/20 00:15:41;;;;;;;18.58;14.15;;;;;;;28.40;nan;97923.34;4923663;29;20047;-73
2023/08/20 00:18:11;;;;;;;23.65;16.02;;;;;;;28.36;nan;97927.03;4928940;28;20063;-73
2023/08/20 00:20:40;;;;;;;18.48;14.57;;;;;;;28.34;nan;97932.81;4909846;29;20050;-72
2023/08/20 00:23:10;;;;;;;24.75;14.73;;;;;;;28.34;nan;97930.09;4927080;29;20060;-73
2023/08/20 00:25:39;;;;;;;19.17;13.63;;;;;;;28.37;nan;97934.09;4913589;29;20506;-73
2023/08/20 00:28:09;;;;;;;17.65;13.60;;;;;;;28.33;nan;97930.41;4927508;28;20052;-74
2023/08/20 00:30:38;;;;;;;19.75;14.35;;;;;;;28.36;nan;97938.75;4926042;29;20513;-73
2023/08/20 00:33:07;;;;;;;18.92;14.80;;;;;;;28.42;nan;97942.06;4921342;29;20063;-73
2023/08/20 00:35:37;;;;;;;21.13;14.13;;;;;;;28.39;nan;97938.09;4926664;29;20059;-73
2023/08/20 00:38:06;;;;;;;21.48;14.82;;;;;;;28.39;nan;97948.97;4908827;29;20167;-72
2023/08/20 00:40:36;;;;;;;18.70;13.98;;;;;;;28.40;nan;97950.59;4897394;29;20079;-72
2023/08/20 00:43:06;;;;;;;22.25;14.65;;;;;;;28.44;nan;97953.44;4892824;29;20059;-72
2023/08/20 00:45:36;;;;;;;22.45;13.80;;;;;;;28.48;nan;97957.13;4901094;29;20107;-72
2023/08/20 00:48:06;;;;;;;16.83;13.00;;;;;;;28.52;nan;97949.88;4902708;29;20064;-73
2023/08/20 00:50:35;;;;;;;19.83;13.63;;;;;;;28.55;nan;97965.56;4890057;29;20157;-73
2023/08/20 00:53:05;;;;;;;19.40;13.57;;;;;;;28.54;nan;97959.34;4887332;29;20082;-72
2023/08/20 00:55:36;;;;;;;23.27;15.45;;;;;;;28.56;nan;97964.44;4905414;29;20140;-74
2023/08/20 00:58:06;;;;;;;20.95;15.13;;;;;;;28.56;nan;97967.16;4907530;29;20036;-72
2023/08/20 01:00:35;;;;;;;18.70;14.13;;;;;;;28.63;nan;97972.13;4902126;29;20052;-72
2023/08/20 01:03:04;;;;;;;23.10;17.08;;;;;;;28.58;nan;97968.47;4888919;29;20115;-72
2023/08/20 01:05:40;;;;;;;22.25;15.35;;;;;;;28.59;nan;97970.03;4903603;29;20059;-73
2023/08/20 01:08:18;;;;;;;20.52;13.98;;;;;;;28.72;nan;97972.91;4922983;29;20044;-73
2023/08/20 01:10:53;;;;;;;23.33;14.65;;;;;;;28.85;nan;97972.69;4889718;29;20044;-73
2023/08/20 01:13:23;;;;;;;21.70;15.35;;;;;;;28.81;nan;97976.41;4920230;29;20050;-73
2023/08/20 01:15:52;;;;;;;21.55;14.73;;;;;;;28.87;nan;97980.50;4892264;29;20404;-74
2023/08/20 01:18:21;;;;;;;19.83;14.77;;;;;;;28.98;nan;97987.19;4900258;29;20056;-73
2023/08/20 01:21:04;;;;;;;19.85;14.65;;;;;;;28.97;nan;97983.69;4892143;29;20472;-74
2023/08/20 01:23:57;;;;;;;18.58;14.90;;;;;;;29.08;nan;97997.72;4921096;29;20055;-74
2023/08/20 01:26:51;;;;;;;19.80;14.77;;;;;;;29.12;nan;97995.91;4908246;29;20163;-73
2023/08/20 01:29:21;;;;;;;19.08;15.20;;;;;;;29.14;nan;97993.66;4901872;29;20071;-73
2023/08/20 01:31:51;;;;;;;20.67;14.93;;;;;;;29.22;nan;98003.72;4891671;29;20132;-73
2023/08/20 01:34:22;;;;;;;18.38;14.60;;;;;;;29.19;nan;97998.13;4922605;29;20048;-73
2023/08/20 01:36:51;;;;;;;18.27;14.02;;;;;;;29.27;nan;98000.81;4909784;29;20036;-73
2023/08/20 01:39:21;;;;;;;17.77;14.52;;;;;;;29.30;nan;97991.97;4875699;29;20135;-73
2023/08/20 01:41:50;;;;;;;22.05;14.18;;;;;;;29.43;nan;97992.88;4880729;29;20048;-73
2023/08/20 01:44:19;;;;;;;18.27;14.32;;;;;;;29.55;nan;98000.31;4906820;29;20048;-74
2023/08/20 01:46:48;;;;;;;21.85;15.18;;;;;;;29.61;nan;98005.22;4917088;28;20079;-74
2023/08/20 01:49:18;;;;;;;19.67;15.60;;;;;;;29.67;nan;98003.09;4922384;29;20095;-73
2023/08/20 01:51:47;;;;;;;20.60;14.77;;;;;;;29.66;nan;98006.94;4887418;29;20135;-74
2023/08/20 01:54:17;;;;;;;20.13;15.07;;;;;;;29.83;nan;98015.78;4901592;29;20044;-73
2023/08/20 01:56:46;;;;;;;23.70;14.63;;;;;;;29.81;nan;98007.16;4907364;29;20036;-74
2023/08/20 01:59:16;;;;;;;20.25;14.80;;;;;;;29.93;nan;98014.63;4908326;29;20051;-73
2023/08/20 02:01:45;;;;;;;21.02;15.02;;;;;;;29.91;nan;98013.38;4923822;29;20044;-73
2023/08/20 02:04:14;;;;;;;25.17;15.05;;;;;;;29.87;nan;98015.94;4910155;29;20424;-73
2023/08/20 02:06:44;;;;;;;21.10;14.52;;;;;;;30.06;nan;98016.25;4915331;28;20048;-72
2023/08/20 02:09:14;;;;;;;23.80;17.10;;;;;;;30.13;nan;98013.00;4917267;28;20047;-73
2023/08/20 02:11:44;;;;;;;22.20;16.38;;;;;;;29.86;nan;98017.88;4908436;28;20127;-73
2023/08/20 02:14:13;;;;;;;21.20;16.30;;;;;;;29.92;nan;98026.66;4911205;29;20479;-72
2023/08/20 02:16:42;;;;;;;25.33;16.77;;;;;;;29.99;nan;98023.41;4911287;29;20075;-73
2023/08/20 02:19:12;;;;;;;24.98;17.08;;;;;;;30.17;nan;98019.38;4911891;28;20050;-73
2023/08/20 02:21:41;;;;;;;23.55;17.75;;;;;;;30.30;nan;98016.34;4929658;29;20119;-73
2023/08/20 02:24:11;;;;;;;23.33;16.95;;;;;;;30.42;nan;98025.69;4917836;29;20142;-73
2023/08/20 02:26:40;;;;;;;21.30;17.70;;;;;;;30.69;nan;98027.81;4926813;29;20067;-73
2023/08/20 02:29:09;;;;;;;23.75;17.67;;;;;;;30.90;nan;98030.44;4925052;29;20048;-73
2023/08/20 02:31:39;;;;;;;23.65;16.52;;;;;;;31.20;nan;98032.63;4912977;29;20046;-73
2023/08/20 02:34:08;;;;;;;21.00;16.73;;;;;;;31.61;nan;98036.25;4912849;29;20055;-73
2023/08/20 02:36:39;;;;;;;38.90;26.90;;;;;;;31.89;nan;98036.28;4892689;29;20045;-73
2023/08/20 02:39:09;;;;;;;34.95;27.73;;;;;;;32.12;nan;98042.84;4938946;28;20119;-73
2023/08/20 02:41:38;;;;;;;27.67;20.55;;;;;;;32.05;nan;98046.13;4915020;29;20068;-74
2023/08/20 02:44:09;;;;;;;36.30;24.85;;;;;;;31.87;nan;98050.31;4895830;29;20063;-73
2023/08/20 02:46:40;;;;;;;27.88;20.92;;;;;;;31.84;nan;98053.75;4891338;29;20509;-73
2023/08/20 02:49:09;;;;;;;23.85;18.73;;;;;;;31.92;nan;98054.75;4923800;29;20051;-73
2023/08/20 02:51:39;;;;;;;27.35;19.05;;;;;;;31.42;nan;98047.00;4894925;29;20136;-73
2023/08/20 02:54:08;;;;;;;25.17;20.25;;;;;;;31.55;nan;98056.81;4881396;29;20056;-73
2023/08/20 02:56:37;;;;;;;24.83;18.48;;;;;;;31.74;nan;98064.38;4907120;29;20047;-73
2023/08/20 02:59:07;;;;;;;29.48;19.50;;;;;;;31.85;nan;98074.53;4907183;29;20052;-73
2023/08/20 03:01:36;;;;;;;24.77;18.75;;;;;;;31.70;nan;98066.22;4906584;29;20055;-73
2023/08/20 03:04:06;;;;;;;24.13;17.40;;;;;;;31.90;nan;98060.59;4893855;29;20056;-73
2023/08/20 03:06:35;;;;;;;27.77;19.80;;;;;;;31.28;nan;98066.50;4907515;29;20056;-73
2023/08/20 03:09:04;;;;;;;27.70;19.00;;;;;;;31.54;nan;98066.13;4888537;29;20052;-73
2023/08/20 03:11:33;;;;;;;27.33;18.50;;;;;;;31.75;nan;98069.53;4891676;29;20044;-73
2023/08/20 03:14:03;;;;;;;26.27;18.55;;;;;;;31.76;nan;98071.13;4891602;29;20372;-73
2023/08/20 03:16:32;;;;;;;26.73;18.23;;;;;;;31.54;nan;98068.88;4907486;29;20044;-73
2023/08/20 03:19:02;;;;;;;24.15;19.35;;;;;;;31.57;nan;98077.22;4892463;29;20108;-73
2023/08/20 03:21:32;;;;;;;26.08;18.95;;;;;;;31.75;nan;98085.97;4884095;29;20052;-73
2023/08/20 03:24:02;;;;;;;25.40;18.33;;;;;;;31.85;nan;98088.22;4891753;29;20064;-73
2023/08/20 03:26:31;;;;;;;25.90;19.15;;;;;;;32.04;nan;98088.38;4890395;29;20059;-73
2023/08/20 03:29:01;;;;;;;23.67;18.02;;;;;;;32.13;nan;98074.59;4905634;29;20394;-72
2023/08/20 03:31:31;;;;;;;24.25;17.92;;;;;;;32.05;nan;98078.22;4887678;29;20040;-72
2023/08/20 03:34:01;;;;;;;20.63;17.13;;;;;;;32.13;nan;98080.06;4913468;29;20068;-73
2023/08/20 03:36:30;;;;;;;23.63;17.38;;;;;;;32.25;nan;98090.16;4920011;29;20047;-73
2023/08/20 03:38:59;;;;;;;24.23;18.48;;;;;;;32.39;nan;98088.63;4888519;29;20107;-73
2023/08/20 03:41:29;;;;;;;22.58;18.60;;;;;;;32.51;nan;98090.50;4887633;29;20552;-73
2023/08/20 03:43:58;;;;;;;26.67;18.60;;;;;;;32.47;nan;98087.66;4925024;28;20142;-73
2023/08/20 03:46:27;;;;;;;25.33;18.88;;;;;;;32.65;nan;98093.66;4912473;29;20059;-73
2023/08/20 03:48:57;;;;;;;21.25;18.02;;;;;;;32.66;nan;98097.19;4912137;29;20515;-74
2023/08/20 03:51:27;;;;;;;23.20;17.92;;;;;;;32.36;nan;98092.03;4928750;29;20048;-73
2023/08/20 03:53:57;;;;;;;27.00;18.90;;;;;;;32.55;nan;98091.38;4927510;29;20059;-73
2023/08/20 03:56:26;;;;;;;26.02;18.73;;;;;;;32.78;nan;98097.13;4911319;29;20055;-73
2023/08/20 03:58:56;;;;;;;25.92;18.08;;;;;;;32.56;nan;98101.22;4911464;29;20051;-73
2023/08/20 04:01:26;;;;;;;23.35;18.15;;;;;;;32.62;nan;98105.31;4924025;28;20059;-74
2023/08/20 04:03:55;;;;;;;21.20;18.00;;;;;;;32.83;nan;98105.09;4910806;29;20047;-74
2023/08/20 04:06:25;;;;;;;21.92;18.05;;;;;;;32.89;nan;98101.72;4929124;29;20044;-74
2023/08/20 04:08:55;;;;;;;25.75;18.38;;;;;;;33.02;nan;98099.66;4912078;29;20058;-73
2023/08/20 04:11:24;;;;;;;21.85;18.05;;;;;;;33.12;nan;98093.66;4911414;28;20055;-73
2023/08/20 04:13:53;;;;;;;24.38;17.85;;;;;;;33.05;nan;98100.94;4927681;28;20425;-73
2023/08/20 04:16:22;;;;;;;31.67;18.38;;;;;;;33.22;nan;98104.13;4910802;29;20572;-73
2023/08/20 04:18:51;;;;;;;27.70;17.95;;;;;;;33.33;nan;98098.88;4905616;29;20066;-74
2023/08/20 04:21:21;;;;;;;25.92;17.45;;;;;;;33.43;nan;98095.59;4921234;28;20067;-73
2023/08/20 04:23:50;;;;;;;24.10;17.50;;;;;;;33.53;nan;98102.50;4942911;28;20806;-73
2023/08/20 04:26:19;;;;;;;21.10;16.42;;;;;;;33.67;nan;98105.59;4918148;28;20044;-72
2023/08/20 04:28:49;;;;;;;21.98;15.95;;;;;;;33.91;nan;98104.53;4909691;29;20043;-73
2023/08/20 04:31:18;;;;;;;19.77;16.33;;;;;;;33.92;nan;98098.69;4938048;28;20051;-73
2023/08/20 04:33:57;;;;;;;130.02;24.23;;;;;;;33.96;nan;98101.50;4911538;29;20063;-73
2023/08/20 04:36:38;;;;;;;20.73;15.60;;;;;;;34.05;nan;98102.88;4911334;29;20052;-72
2023/08/20 04:39:07;;;;;;;20.52;16.98;;;;;;;33.93;nan;98105.78;4912089;29;20051;-73
2023/08/20 04:41:39;;;;;;;22.10;17.88;;;;;;;33.84;nan;98102.44;4912165;29;20448;-73
2023/08/20 04:44:13;;;;;;;27.65;16.27;;;;;;;34.27;nan;98102.19;4911439;29;20155;-72
2023/08/20 04:46:47;;;;;;;21.40;16.58;;;;;;;34.07;nan;98105.28;4917482;28;20051;-72
2023/08/20 04:49:18;;;;;;;18.35;15.23;;;;;;;34.58;nan;98097.66;4936590;28;20062;-71
2023/08/20 04:51:47;;;;;;;22.48;15.52;;;;;;;35.01;nan;98099.22;4912700;29;20052;-72
2023/08/20 04:54:17;;;;;;;21.23;16.27;;;;;;;35.35;nan;98106.53;4913172;28;20044;-72
2023/08/20 04:56:47;;;;;;;18.95;14.30;;;;;;;35.44;nan;98107.06;4941463;28;20048;-72
2023/08/20 04:59:16;;;;;;;19.73;15.93;;;;;;;35.19;nan;98100.34;4905679;29;20059;-72
2023/08/20 05:02:09;;;;;;;19.75;16.17;;;;;;;34.84;nan;98100.53;4913549;28;20060;-72
2023/08/20 05:04:45;;;;;;;19.65;15.30;;;;;;;34.90;nan;98092.75;4924133;29;20044;-72
2023/08/20 05:07:15;;;;;;;23.08;15.18;;;;;;;34.99;nan;98096.88;4913559;28;20039;-72
2023/08/20 05:09:44;;;;;;;16.95;14.77;;;;;;;35.18;nan;98106.25;4892326;29;20130;-72
2023/08/20 05:12:14;;;;;;;18.00;14.02;;;;;;;35.01;nan;98097.28;4937649;28;20060;-72
2023/08/20 05:14:44;;;;;;;19.85;14.80;;;;;;;34.91;nan;98106.16;4926202;29;20278;-72
2023/08/20 05:17:13;;;;;;;20.58;14.00;;;;;;;34.85;nan;98104.88;4909910;28;20094;-72
2023/08/20 05:19:44;;;;;;;17.73;15.10;;;;;;;34.68;nan;98095.16;4910470;29;20055;-72
2023/08/20 05:22:14;;;;;;;16.55;13.93;;;;;;;34.87;nan;98104.50;4907554;29;20046;-75
2023/08/20 05:24:43;;;;;;;16.85;14.68;;;;;;;34.94;nan;98110.94;4924578;29;20055;-73
2023/08/20 05:27:17;;;;;;;18.08;14.15;;;;;;;35.42;nan;98108.56;4936942;28;20048;-73
2023/08/20 05:29:50;;;;;;;20.20;13.90;;;;;;;35.72;nan;98106.69;4924810;29;20143;-74
2023/08/20 05:32:21;;;;;;;16.58;14.73;;;;;;;35.81;nan;98106.41;4910344;29;20483;-73
2023/08/20 05:34:50;;;;;;;16.60;14.27;;;;;;;35.66;nan;98104.66;4910758;29;20071;-73
2023/08/20 05:37:20;;;;;;;16.23;13.85;;;;;;;35.65;nan;98111.31;4926658;28;20039;-74
2023/08/20 05:39:49;;;;;;;17.15;15.02;;;;;;;35.80;nan;98107.59;4924080;28;20130;-74
2023/08/20 05:42:19;;;;;;;16.38;13.88;;;;;;;36.18;nan;98092.75;4906577;29;20055;-73
2023/08/20 05:44:54;;;;;;;21.27;14.60;;;;;;;36.48;nan;98102.56;4898829;29;20035;-74
2023/08/20 05:47:27;;;;;;;17.63;12.77;;;;;;;35.81;nan;98092.63;4899368;29;20058;-74
2023/08/20 05:49:57;;;;;;;13.80;12.32;;;;;;;35.93;nan;98087.69;4900555;29;20144;-73
2023/08/20 05:52:26;;;;;;;17.77;12.52;;;;;;;36.54;nan;98091.97;4910322;29;20072;-72
2023/08/20 05:54:55;;;;;;;15.95;13.77;;;;;;;35.88;nan;98078.97;4900737;29;20048;-73
2023/08/20 05:57:24;;;;;;;14.50;12.95;;;;;;;35.51;nan;98084.31;4889893;29;20097;-72
2023/08/20 05:59:54;;;;;;;15.27;12.57;;;;;;;34.99;nan;98088.59;4888909;29;20488;-73
2023/08/20 06:02:23;;;;;;;16.13;13.85;;;;;;;35.47;nan;98076.00;4887606;29;20062;-73
2023/08/20 06:04:52;;;;;;;14.52;12.70;;;;;;;35.62;nan;98084.47;4907173;29;20159;-71
2023/08/20 06:07:25;;;;;;;16.30;13.70;;;;;;;35.43;nan;98083.44;4907003;29;20056;-70
2023/08/20 06:09:54;;;;;;;16.73;13.05;;;;;;;35.29;nan;98071.41;4888146;29;20072;-72
2023/08/20 06:12:24;;;;;;;19.83;13.50;;;;;;;35.17;nan;98079.88;4905387;29;20044;-72
2023/08/20 06:14:53;;;;;;;14.48;12.98;;;;;;;35.03;nan;98080.41;4905580;29;20056;-70
2023/08/20 06:17:23;;;;;;;16.85;13.93;;;;;;;34.97;nan;98070.84;4897083;29;20048;-69
2023/08/20 06:19:53;;;;;;;15.38;13.48;;;;;;;34.79;nan;98081.56;4875211;29;20445;-69
2023/08/20 06:22:22;;;;;;;17.38;13.48;;;;;;;34.60;nan;98074.16;4898012;29;20056;-68
2023/08/20 06:24:52;;;;;;;14.07;12.68;;;;;;;34.57;nan;98065.81;4907165;29;20052;-68
2023/08/20 06:27:21;;;;;;;18.35;13.73;;;;;;;34.95;nan;98068.47;4904404;29;20077;-68
2023/08/20 06:29:51;;;;;;;14.38;11.95;;;;;;;35.40;nan;98073.16;4906946;29;20052;-68
2023/08/20 06:32:20;;;;;;;14.07;12.25;;;;;;;35.34;nan;98076.59;4885739;29;20111;-69
2023/08/20 06:34:50;;;;;;;14.13;11.70;;;;;;;35.39;nan;98073.53;4902527;29;20226;-69
2023/08/20 06:37:19;;;;;;;15.82;11.77;;;;;;;35.73;nan;98074.41;4908211;29;20615;-72
2023/08/20 06:39:48;;;;;;;17.83;11.93;;;;;;;35.88;nan;98057.69;4887482;29;20056;-68
2023/08/20 06:42:18;;;;;;;16.65;11.68;;;;;;;35.60;nan;98062.81;4905274;29;20052;-68
2023/08/20 06:44:47;;;;;;;18.55;11.93;;;;;;;35.28;nan;98053.28;4924226;28;20356;-69
2023/08/20 06:47:16;;;;;;;13.25;11.77;;;;;;;35.12;nan;98051.44;4907381;28;20043;-69
2023/08/20 06:49:46;;;;;;;13.30;11.90;;;;;;;35.50;nan;98050.47;4930025;28;20456;-68
2023/08/20 06:52:15;;;;;;;16.77;12.32;;;;;;;35.71;nan;98051.97;4922698;28;20110;-67
2023/08/20 06:54:45;;;;;;;15.52;12.20;;;;;;;35.69;nan;98046.81;4902164;29;20067;-69
2023/08/20 06:57:14;;;;;;;14.57;12.88;;;;;;;35.85;nan;98038.38;4920383;29;20059;-67
2023/08/20 06:59:43;;;;;;;16.65;12.32;;;;;;;35.80;nan;98041.44;4928962;28;20059;-69
2023/08/20 07:02:13;;;;;;;15.70;12.00;;;;;;;36.00;nan;98040.13;4922072;28;20174;-69
2023/08/20 07:04:42;;;;;;;16.67;10.73;;;;;;;35.78;nan;98038.25;4922249;28;20052;-71
2023/08/20 07:07:14;;;;;;;13.18;11.07;;;;;;;35.98;nan;98032.22;4924861;28;20035;-70
2023/08/20 07:09:43;;;;;;;12.38;11.07;;;;;;;36.12;nan;98031.59;4908559;29;20067;-68
2023/08/20 07:12:14;;;;;;;14.68;10.00;;;;;;;36.01;nan;98025.16;4922867;28;20364;-68
2023/08/20 07:14:43;;;;;;;11.45;10.40;;;;;;;36.18;nan;98032.88;4926617;29;20059;-67
2023/08/20 07:17:14;;;;;;;12.65;10.73;;;;;;;36.34;nan;98027.13;4914771;29;20122;-69
2023/08/20 07:19:45;;;;;;;10.70;9.60;;;;;;;36.36;nan;98033.84;4923444;28;20043;-69
2023/08/20 07:22:22;;;;;;;15.45;9.35;;;;;;;36.16;nan;98028.91;4931029;28;20063;-67
2023/08/20 07:24:51;;;;;;;11.60;10.40;;;;;;;36.24;nan;98027.81;4931016;28;20418;-69
2023/08/20 07:27:21;;;;;;;13.25;10.45;;;;;;;36.31;nan;98016.84;4925981;29;20040;-68
2023/08/20 07:30:22;;;;;;;15.27;10.43;;;;;;;36.22;nan;98016.34;5506988;23;20033;31
2023/08/20 07:32:52;;;;;;;14.68;11.63;;;;;;;35.96;nan;98019.97;4879395;29;20056;-69
2023/08/20 07:35:22;;;;;;;13.23;10.85;;;;;;;35.75;nan;98008.72;4884536;29;20406;-69
2023/08/20 07:41:14;;;;;;;12.27;10.88;;;;;;;35.99;nan;98006.22;4924556;23;20717;-70
2023/08/20 07:43:43;;;;;;;18.00;11.65;;;;;;;35.93;nan;98001.44;4822577;29;20077;-69
2023/08/20 07:46:13;;;;;;;15.90;12.10;;;;;;;36.15;nan;98000.53;4858907;29;20147;-69
2023/08/20 07:48:43;;;;;;;16.02;11.20;;;;;;;35.91;nan;97992.75;4837683;29;20144;-68
2023/08/20 07:51:13;;;;;;;13.10;11.73;;;;;;;35.83;nan;97983.59;4841887;29;20488;-73
2023/08/20 07:53:42;;;;;;;13.10;11.55;;;;;;;35.93;nan;97982.16;4849664;29;20153;-70
2023/08/20 07:56:11;;;;;;;14.27;11.25;;;;;;;35.98;nan;97982.59;4853997;29;20049;-75
2023/08/20 07:58:41;;;;;;;14.40;12.98;;;;;;;36.06;nan;97977.97;4850185;29;20064;-72
2023/08/20 08:01:10;;;;;;;21.25;12.55;;;;;;;36.00;nan;97974.75;4849681;29;20045;-73
2023/08/20 08:03:42;;;;;;;15.50;13.43;;;;;;;35.87;nan;97975.38;4849687;29;20396;-69
2023/08/20 08:06:11;;;;;;;16.05;13.13;;;;;;;35.73;nan;97975.19;4850480;29;20049;-72
2023/08/20 08:08:46;;;;;;;13.50;12.10;;;;;;;35.75;nan;97970.91;4849219;29;20057;-75
2023/08/20 08:11:15;;;;;;;14.02;12.52;;;;;;;35.79;nan;97968.19;4851276;29;20068;-74
2023/08/20 08:13:44;;;;;;;15.68;13.15;;;;;;;35.86;nan;97962.75;4852005;29;20069;-76
2023/08/20 08:16:14;;;;;;;17.52;12.70;;;;;;;35.81;nan;97965.84;4852547;29;20045;-74
2023/08/20 08:18:43;;;;;;;15.70;12.27;;;;;;;35.80;nan;97958.75;4852303;29;20054;-75
2023/08/20 08:21:12;;;;;;;15.43;13.25;;;;;;;35.91;nan;97957.69;4852368;29;20064;-75
2023/08/20 08:23:41;;;;;;;18.83;12.95;;;;;;;35.99;nan;97955.81;4855385;29;20045;-75
2023/08/20 08:26:11;;;;;;;12.98;11.68;;;;;;;36.06;nan;97946.84;4843881;29;20049;-73
2023/08/20 08:28:40;;;;;;;13.48;12.07;;;;;;;35.92;nan;97940.00;4849005;29;20056;-73
2023/08/20 08:31:09;;;;;;;13.45;11.40;;;;;;;35.92;nan;97939.22;4847517;29;20045;-73
2023/08/20 08:33:39;;;;;;;14.48;11.95;;;;;;;35.94;nan;97937.63;4847798;29;20065;-73
2023/08/20 08:36:08;;;;;;;13.25;11.43;;;;;;;35.95;nan;97939.22;4849589;29;20046;-72
2023/08/20 08:38:37;;;;;;;17.55;12.45;;;;;;;35.97;nan;97933.34;4849953;29;20073;-73
2023/08/20 08:41:11;;;;;;;15.10;12.75;;;;;;;36.04;nan;97933.41;4849319;29;21351;-73
2023/08/20 08:43:41;;;;;;;16.08;12.77;;;;;;;36.00;nan;97927.88;4848144;29;20872;-73
2023/08/20 08:46:16;;;;;;;13.38;11.45;;;;;;;35.92;nan;97917.16;4849621;29;20859;-73
2023/08/20 08:48:47;;;;;;;16.48;12.40;;;;;;;35.97;nan;97912.09;4847595;29;20060;-73
2023/08/20 08:51:17;;;;;;;15.98;12.70;;;;;;;36.13;nan;97906.34;4849842;29;20117;-73
2023/08/20 08:53:47;;;;;;;16.23;12.20;;;;;;;36.13;nan;97900.84;4850534;29;20106;-73
2023/08/20 08:56:17;;;;;;;15.90;12.18;;;;;;;36.01;nan;97896.38;4850446;29;20057;-73
2023/08/20 08:58:47;;;;;;;23.40;14.82;;;;;;;36.14;nan;97896.13;4847203;29;20894;-73
2023/08/20 09:01:17;;;;;;;18.33;12.70;;;;;;;36.06;nan;97903.50;4848835;29;20041;-72
2023/08/20 09:03:47;;;;;;;14.85;13.32;;;;;;;35.95;nan;97895.13;4846558;29;20049;-69
2023/08/20 09:06:17;;;;;;;15.30;13.38;;;;;;;35.95;nan;97895.13;4847442;29;20379;-72
2023/08/20 09:08:47;;;;;;;15.68;13.75;;;;;;;35.94;nan;97893.53;4845964;29;20069;-72
2023/08/20 09:11:16;;;;;;;14.43;12.93;;;;;;;35.89;nan;97893.09;4844526;29;20083;-74
2023/08/20 09:13:45;;;;;;;15.40;13.35;;;;;;;35.78;nan;97887.47;4498520;29;10000478;-69
2023/08/20 09:16:14;;;;;;;15.15;12.80;;;;;;;35.72;nan;97883.47;4831043;29;20056;-69
2023/08/20 09:18:46;;;;;;;14.93;12.85;;;;;;;35.41;nan;97884.66;4844931;29;20057;-70
2023/08/20 09:21:16;;;;;;;15.18;13.68;;;;;;;35.38;nan;97881.88;4847369;29;20433;-69
2023/08/20 09:23:46;;;;;;;15.23;13.63;;;;;;;35.31;nan;97877.09;4846647;29;20060;-71
2023/08/20 09:26:16;;;;;;;14.85;13.32;;;;;;;35.23;nan;97882.88;4845810;29;20068;-71
2023/08/20 09:28:47;;;;;;;14.00;12.60;;;;;;;35.09;nan;97869.69;4840978;29;20045;-70
2023/08/20 09:31:17;;;;;;;17.27;13.85;;;;;;;34.89;nan;97871.78;4842244;29;20064;-74
2023/08/20 09:33:53;;;;;;;23.88;13.48;;;;;;;34.83;nan;97867.00;4858106;29;20524;-77
2023/08/20 09:36:34;;;;;;;15.27;13.15;;;;;;;34.62;nan;97865.47;4851544;29;20048;-70
2023/08/20 09:39:04;;;;;;;18.85;14.52;;;;;;;34.56;nan;97869.72;4846819;29;20799;-74
2023/08/20 09:41:36;;;;;;;15.32;13.80;;;;;;;34.55;nan;97867.34;4860410;29;20053;-74
2023/08/20 09:44:08;;;;;;;16.60;14.13;;;;;;;34.35;nan;97866.63;4852395;29;20064;-71
2023/08/20 09:46:38;;;;;;;16.55;14.20;;;;;;;34.20;nan;97862.06;4849779;29;20136;-69
2023/08/20 09:49:11;;;;;;;14.88;13.48;;;;;;;34.12;nan;97861.13;4848063;29;20077;-70
2023/08/20 09:51:42;;;;;;;15.38;13.77;;;;;;;34.05;nan;97861.00;4846111;29;20065;-71
2023/08/20 09:54:23;;;;;;;14.25;12.80;;;;;;;33.98;nan;97854.59;4834255;29;20114;-73
2023/08/20 09:56:59;;;;;;;15.82;13.75;;;;;;;33.90;nan;97861.13;4852847;29;20057;-71
2023/08/20 09:59:29;;;;;;;17.65;13.98;;;;;;;33.84;nan;97855.94;4852599;29;20064;-69
2023/08/20 10:02:00;;;;;;;15.75;14.13;;;;;;;33.76;nan;97856.97;4848335;29;20061;-70
2023/08/20 10:04:30;;;;;;;17.55;15.20;;;;;;;33.73;nan;97854.94;4847237;29;20073;-69
2023/08/20 10:07:00;;;;;;;16.23;14.15;;;;;;;33.70;nan;97852.94;4823081;29;20053;-69
2023/08/20 10:09:30;;;;;;;19.33;15.88;;;;;;;33.66;nan;97838.34;4848821;29;20072;-69
2023/08/20 10:12:01;;;;;;;17.23;15.23;;;;;;;33.66;nan;97835.59;4848014;29;20486;-69
2023/08/20 10:14:32;;;;;;;17.70;15.80;;;;;;;33.64;nan;97835.13;4846382;29;20132;-68
2023/08/20 10:17:07;;;;;;;19.58;16.92;;;;;;;33.65;nan;97828.47;4849525;29;20499;-69
2023/08/20 10:19:37;;;;;;;22.63;15.60;;;;;;;33.63;nan;97827.28;4845969;29;20049;-66
2023/08/20 10:22:08;;;;;;;18.05;15.23;;;;;;;33.66;nan;97821.88;4844458;29;20068;-72
2023/08/20 10:24:47;;;;;;;17.10;15.02;;;;;;;33.66;nan;97821.06;4846504;29;20049;-71
2023/08/20 10:27:36;;;;;;;17.13;15.52;;;;;;;33.64;nan;97837.06;4840810;29;20059;-71
2023/08/20 10:30:17;;;;;;;19.02;17.02;;;;;;;33.61;nan;97833.13;4830062;29;20099;-69
2023/08/20 10:32:55;;;;;;;25.17;18.38;;;;;;;33.63;nan;97830.81;4856409;29;20049;-70
2023/08/20 10:35:40;;;;;;;29.17;20.10;;;;;;;33.71;nan;97824.31;4850294;29;20052;-70
2023/08/20 10:38:17;;;;;;;25.70;20.30;;;;;;;33.88;nan;97817.53;4850553;29;20140;-70
2023/08/20 10:40:48;;;;;;;27.25;20.40;;;;;;;34.00;nan;97809.09;4849807;29;20053;-69
2023/08/20 10:43:40;;;;;;;24.27;19.30;;;;;;;34.12;nan;97813.63;4838127;29;20045;-68
2023/08/20 10:46:23;;;;;;;26.33;19.65;;;;;;;34.16;nan;97814.47;4848796;29;20101;-69
2023/08/20 10:48:54;;;;;;;19.92;17.67;;;;;;;34.21;nan;97805.94;4848500;29;20057;-68
2023/08/20 10:51:33;;;;;;;23.55;17.88;;;;;;;34.26;nan;97811.09;4848104;29;20057;-69
2023/08/20 10:54:10;;;;;;;22.85;17.00;;;;;;;34.31;nan;97812.75;4848537;29;20057;-69
2023/08/20 10:56:41;;;;;;;25.20;18.10;;;;;;;34.16;nan;97828.22;4849259;29;20136;-69
2023/08/20 10:59:13;;;;;;;21.75;18.33;;;;;;;33.98;nan;97818.88;4846909;29;20057;-70
2023/08/20 11:01:47;;;;;;;21.47;16.90;;;;;;;33.93;nan;97809.00;4847436;29;20097;-70
2023/08/20 11:04:20;;;;;;;19.73;17.55;;;;;;;33.85;nan;97807.28;4832379;29;20049;-70
2023/08/20 11:06:57;;;;;;;20.35;16.55;;;;;;;33.77;nan;97806.34;4836576;29;20125;-69
2023/08/20 11:09:30;;;;;;;16.20;13.13;;;;;;;33.63;nan;97797.06;4827859;29;20076;-69
2023/08/20 11:11:59;;;;;;;14.73;13.10;;;;;;;33.62;nan;97792.72;4847339;29;20362;-69
2023/08/20 11:14:30;;;;;;;15.55;12.02;;;;;;;33.50;nan;97792.91;4833601;29;20652;-70
2023/08/20 11:16:59;;;;;;;13.23;11.93;;;;;;;33.50;nan;97782.72;4847903;29;20061;-68
2023/08/20 11:19:29;;;;;;;14.20;11.60;;;;;;;33.41;nan;97784.91;4847849;29;20054;-68
2023/08/20 11:21:59;;;;;;;12.70;11.40;;;;;;;33.31;nan;97774.50;4864867;29;20063;-66
2023/08/20 11:24:32;;;;;;;13.73;12.00;;;;;;;33.23;nan;97781.81;4844102;29;20045;-69
2023/08/20 11:27:01;;;;;;;16.60;12.50;;;;;;;33.10;nan;97776.81;4840189;29;20308;-68
2023/08/20 11:29:31;;;;;;;16.25;14.07;;;;;;;33.07;nan;97774.78;4848297;29;20049;-69
2023/08/20 11:32:03;;;;;;;17.02;14.90;;;;;;;33.02;nan;97772.34;4847375;29;20445;-69
2023/08/20 11:34:32;;;;;;;18.77;16.05;;;;;;;32.96;nan;97760.88;4845322;29;20053;-69
2023/08/20 11:37:06;;;;;;;20.17;15.90;;;;;;;32.95;nan;97760.06;4843857;29;20192;-68
2023/08/20 11:39:37;;;;;;;18.92;14.75;;;;;;;32.96;nan;97749.91;4848397;29;20054;-68
2023/08/20 11:42:08;;;;;;;18.88;15.10;;;;;;;32.97;nan;97746.78;4848129;29;20059;-68
2023/08/20 11:44:46;;;;;;;17.98;14.65;;;;;;;32.99;nan;97751.91;4845371;29;20643;-69
2023/08/20 11:47:18;;;;;;;17.25;15.32;;;;;;;33.02;nan;97753.16;4849605;29;20045;-67
2023/08/20 11:49:48;;;;;;;17.87;15.13;;;;;;;33.04;nan;97746.13;4849560;29;20113;-69
2023/08/20 11:52:20;;;;;;;18.75;14.93;;;;;;;33.05;nan;97735.94;4848808;29;20060;-69
2023/08/20 11:54:50;;;;;;;15.10;13.43;;;;;;;33.07;nan;97736.38;4847819;29;20049;-70